Southport, California
Current Conditions -  °F | °C
As of 7:53 AM on Sunday 23 Nov 2014 (Local Time) from KSAC Reporting Station
Clear Clear  
Wind Chill: 44°   Ceiling: Unl
Heat Index: 47°   Visibility: 10mi
Dew Point: 43°   Wind: 6mph
Humidity: 86%   Direction: 310°NW
Pressure: 30.31"   Gusts: NA
Location:  38.5256°N, 121.556°W
Report Text: KSAC 231553Z 31005KT 10SM CLR 08/06 A3031 RMK AO2 SLP264 T00830061
Loading
Personal Weather Stations






























Interactive Weather Map New forecast layout! Learn more

10-Day Weather Forecast

Advertisements
Track Severe Weather on mobile